createdAt,value
2023-02-05T00:01:20.120Z,50.48
2023-02-05T00:03:46.950Z,50.56
2023-02-05T00:06:13.527Z,50.42
2023-02-05T00:08:40.032Z,51.25
2023-02-05T00:11:09.770Z,51.18
2023-02-05T00:13:38.331Z,51.01
2023-02-05T00:16:10.388Z,51.00
2023-02-05T00:18:37.531Z,51.01
2023-02-05T00:21:05.713Z,51.07
2023-02-05T00:23:33.408Z,51.04
2023-02-05T00:26:00.009Z,51.07
2023-02-05T00:28:26.813Z,50.91
2023-02-05T00:30:53.518Z,50.91
2023-02-05T00:33:21.842Z,51.26
2023-02-05T00:35:49.621Z,50.85
2023-02-05T00:38:17.003Z,50.67
2023-02-05T00:40:43.819Z,51.18
2023-02-05T00:43:10.413Z,50.90
2023-02-05T00:45:37.066Z,50.57
2023-02-05T00:48:07.204Z,50.82
2023-02-05T00:50:35.562Z,50.71
2023-02-05T00:53:02.199Z,51.06
2023-02-05T00:55:28.843Z,51.15
2023-02-05T00:57:55.438Z,51.18
2023-02-05T01:00:22.702Z,50.83
2023-02-05T01:02:49.283Z,51.21
2023-02-05T01:05:15.968Z,50.85
2023-02-05T01:07:42.514Z,50.93
2023-02-05T01:10:09.270Z,51.16
2023-02-05T01:12:35.822Z,51.45
2023-02-05T01:15:05.968Z,51.51
2023-02-05T01:17:32.712Z,51.45
2023-02-05T01:19:59.239Z,51.55
2023-02-05T01:22:25.787Z,51.94
2023-02-05T01:24:52.964Z,51.93
2023-02-05T01:27:19.558Z,51.88
2023-02-05T01:29:47.169Z,52.28
2023-02-05T01:32:13.700Z,51.89
2023-02-05T01:34:40.260Z,51.82
2023-02-05T01:37:06.789Z,51.88
2023-02-05T01:39:33.354Z,52.03
2023-02-05T01:41:59.870Z,51.80
2023-02-05T01:44:26.410Z,51.60
2023-02-05T01:46:54.685Z,51.76
2023-02-05T01:49:36.576Z,51.81
2023-02-05T01:52:07.022Z,52.19
2023-02-05T01:54:37.832Z,52.23
2023-02-05T01:57:16.472Z,52.07
2023-02-05T01:59:45.144Z,51.45
2023-02-05T02:02:11.794Z,51.71
2023-02-05T02:04:38.405Z,51.38
2023-02-05T02:07:06.243Z,51.66
2023-02-05T02:09:34.584Z,51.76
2023-02-05T02:12:01.859Z,51.81
2023-02-05T02:14:32.201Z,51.59
2023-02-05T02:17:00.427Z,51.77
2023-02-05T02:19:38.011Z,51.32
2023-02-05T02:22:26.760Z,51.57
2023-02-05T02:25:01.839Z,51.37
2023-02-05T02:27:44.300Z,51.60
2023-02-05T02:30:27.629Z,51.83
2023-02-05T02:33:09.042Z,52.05
2023-02-05T02:35:35.912Z,52.31
2023-02-05T02:38:18.755Z,52.52
2023-02-05T02:41:01.377Z,52.23
2023-02-05T02:43:55.826Z,52.50
2023-02-05T02:46:24.454Z,52.26
2023-02-05T02:48:56.156Z,52.86
2023-02-05T02:51:27.523Z,52.22
2023-02-05T02:53:57.869Z,52.43
2023-02-05T02:56:28.323Z,52.83
2023-02-05T02:59:06.651Z,52.38
2023-02-05T03:01:37.966Z,52.16
2023-02-05T03:04:13.440Z,52.05
2023-02-05T03:06:44.937Z,52.59
2023-02-05T03:09:20.992Z,52.46
2023-02-05T03:11:47.720Z,52.38
2023-02-05T03:14:14.942Z,52.29
2023-02-05T03:16:41.604Z,51.99
2023-02-05T03:19:08.769Z,52.43
2023-02-05T03:21:50.001Z,52.17
2023-02-05T03:24:17.160Z,52.25
2023-02-05T03:26:43.692Z,52.29
2023-02-05T03:29:26.130Z,52.18
2023-02-05T03:32:08.313Z,52.49
2023-02-05T03:34:40.974Z,52.18
2023-02-05T03:37:34.033Z,52.13
2023-02-05T03:40:09.572Z,52.02
2023-02-05T03:43:01.161Z,52.48
2023-02-05T03:45:32.041Z,53.33
2023-02-05T03:48:37.852Z,52.50
2023-02-05T03:51:10.358Z,52.86
2023-02-05T03:53:55.895Z,53.03
2023-02-05T03:57:04.023Z,52.51
2023-02-05T03:59:35.312Z,52.45
2023-02-05T04:02:04.670Z,53.14
2023-02-05T04:04:35.550Z,53.09
2023-02-05T04:07:02.746Z,53.35
2023-02-05T04:09:29.720Z,53.69
2023-02-05T04:11:56.599Z,53.22
2023-02-05T04:14:23.940Z,52.60
2023-02-05T04:16:51.188Z,52.48
2023-02-05T04:19:20.374Z,52.20
2023-02-05T04:21:46.968Z,52.20
2023-02-05T04:24:13.831Z,52.54
2023-02-05T04:26:40.757Z,51.95
2023-02-05T04:29:07.957Z,52.12
2023-02-05T04:31:40.905Z,52.24
2023-02-05T04:34:07.667Z,51.87
2023-02-05T04:36:34.533Z,52.30
2023-02-05T04:39:02.015Z,52.07
2023-02-05T04:41:29.444Z,52.32
2023-02-05T04:43:55.979Z,51.86
2023-02-05T04:46:22.599Z,52.03
2023-02-05T04:48:49.160Z,52.08
2023-02-05T04:51:16.158Z,51.99
2023-02-05T04:53:42.790Z,52.00
2023-02-05T04:56:12.230Z,52.49
2023-02-05T04:58:39.605Z,52.42
2023-02-05T05:01:12.451Z,53.05
2023-02-05T05:03:39.360Z,52.77
2023-02-05T05:06:06.588Z,52.60
2023-02-05T05:08:33.222Z,52.54
2023-02-05T05:11:06.264Z,51.61
2023-02-05T05:13:34.315Z,52.50
2023-02-05T05:16:01.502Z,52.32
2023-02-05T05:18:28.478Z,52.52
2023-02-05T05:20:55.015Z,52.41
2023-02-05T05:23:21.608Z,52.42
2023-02-05T05:25:48.611Z,52.89
2023-02-05T05:28:16.591Z,52.84
2023-02-05T05:30:45.010Z,52.75
2023-02-05T05:33:12.249Z,52.97
2023-02-05T05:35:39.229Z,52.64
2023-02-05T05:38:06.101Z,52.31
2023-02-05T05:40:51.748Z,52.63
2023-02-05T05:43:39.228Z,52.65
2023-02-05T05:46:06.940Z,52.31
2023-02-05T05:48:33.621Z,52.82
2023-02-05T05:51:00.192Z,53.02
2023-02-05T05:53:27.721Z,52.76
2023-02-05T05:55:54.269Z,52.42
2023-02-05T05:58:20.794Z,52.65
2023-02-05T06:00:47.392Z,52.57
2023-02-05T06:03:14.077Z,52.66
2023-02-05T06:05:40.628Z,52.75
2023-02-05T06:08:07.591Z,52.52
2023-02-05T06:10:35.026Z,51.94
2023-02-05T06:13:01.572Z,51.88
2023-02-05T06:15:28.204Z,51.93
2023-02-05T06:17:54.745Z,52.05
2023-02-05T06:20:21.377Z,51.54
2023-02-05T06:22:47.913Z,52.35
2023-02-05T06:25:15.672Z,52.28
2023-02-05T06:27:42.352Z,52.31
2023-02-05T06:30:09.561Z,52.42
2023-02-05T06:32:36.174Z,52.14
2023-02-05T06:35:03.026Z,51.96
2023-02-05T06:37:46.293Z,51.82
2023-02-05T06:40:15.606Z,51.93
2023-02-05T06:42:42.449Z,51.98
2023-02-05T06:45:10.067Z,51.91
2023-02-05T06:47:36.895Z,51.22
2023-02-05T06:50:04.175Z,51.36
2023-02-05T06:52:30.695Z,51.35
2023-02-05T06:54:57.215Z,50.96
2023-02-05T06:57:23.757Z,51.53
2023-02-05T06:59:50.966Z,51.38
2023-02-05T07:02:17.512Z,51.08
2023-02-05T07:04:44.061Z,51.21
2023-02-05T07:07:10.630Z,51.25
2023-02-05T07:09:37.157Z,51.16
2023-02-05T07:12:03.912Z,51.02
2023-02-05T07:14:31.491Z,51.25
2023-02-05T07:16:58.099Z,51.57
2023-02-05T07:19:24.639Z,51.27
2023-02-05T07:21:51.152Z,51.17
2023-02-05T07:24:17.730Z,50.49
2023-02-05T07:26:45.237Z,50.27
2023-02-05T07:29:12.099Z,50.76
2023-02-05T07:31:38.782Z,50.69
2023-02-05T07:34:05.388Z,50.63
2023-02-05T07:36:31.921Z,50.70
2023-02-05T07:38:58.506Z,51.12
2023-02-05T07:41:26.750Z,51.22
2023-02-05T07:43:54.511Z,51.13
2023-02-05T07:46:22.248Z,51.10
2023-02-05T07:48:49.307Z,50.72
2023-02-05T07:51:18.615Z,50.45
2023-02-05T07:53:45.862Z,50.65
2023-02-05T07:56:12.656Z,50.51
2023-02-05T07:58:39.260Z,50.11
2023-02-05T08:01:06.187Z,50.31
2023-02-05T08:03:32.916Z,50.05
2023-02-05T08:05:59.739Z,49.97
2023-02-05T08:08:26.319Z,50.10
2023-02-05T08:10:58.338Z,50.64
2023-02-05T08:13:24.940Z,50.78
2023-02-05T08:15:51.528Z,50.81
2023-02-05T08:18:18.133Z,50.57
2023-02-05T08:20:44.855Z,50.48
2023-02-05T08:23:11.472Z,50.31
2023-02-05T08:25:38.808Z,49.81
2023-02-05T08:28:06.282Z,49.99
2023-02-05T08:30:32.884Z,49.02
2023-02-05T08:32:59.443Z,49.10
2023-02-05T08:35:25.996Z,48.97
2023-02-05T08:37:52.558Z,48.61
2023-02-05T08:40:19.626Z,48.45
2023-02-05T08:42:46.700Z,47.62
2023-02-05T08:45:14.021Z,48.13
2023-02-05T08:47:40.662Z,47.98
2023-02-05T08:50:07.335Z,47.35
2023-02-05T08:52:33.883Z,47.13
2023-02-05T08:55:00.455Z,47.10
2023-02-05T08:57:30.539Z,47.25
2023-02-05T08:59:57.396Z,46.92
2023-02-05T09:02:26.852Z,46.73
2023-02-05T09:05:07.695Z,46.61
2023-02-05T09:07:35.399Z,46.24
2023-02-05T09:10:01.933Z,46.41
2023-02-05T09:12:28.501Z,46.35
2023-02-05T09:14:55.313Z,46.01
2023-02-05T09:17:21.876Z,46.68
2023-02-05T09:19:48.478Z,45.87
2023-02-05T09:22:15.073Z,45.91
2023-02-05T09:24:41.758Z,46.18
2023-02-05T09:27:08.349Z,46.43
2023-02-05T09:29:35.053Z,46.07
2023-02-05T09:32:01.632Z,46.12
2023-02-05T09:34:28.306Z,45.59
2023-02-05T09:36:54.832Z,46.35
2023-02-05T09:39:52.375Z,46.18
2023-02-05T09:42:30.065Z,45.57
2023-02-05T09:45:14.598Z,45.16
2023-02-05T09:47:59.853Z,45.32
2023-02-05T09:50:31.430Z,45.04
2023-02-05T09:53:09.527Z,45.92
2023-02-05T09:55:40.158Z,44.28
2023-02-05T09:58:31.015Z,43.54
2023-02-05T10:01:02.823Z,43.03
2023-02-05T10:03:34.263Z,42.69
2023-02-05T10:06:15.840Z,40.46
2023-02-05T10:08:53.310Z,40.79
2023-02-05T10:11:25.941Z,40.18
2023-02-05T10:14:04.900Z,38.99
2023-02-05T10:17:16.730Z,38.15
2023-02-05T10:20:20.329Z,37.33
2023-02-05T10:22:59.093Z,37.55
2023-02-05T10:25:50.029Z,37.53
2023-02-05T10:28:45.270Z,36.75
2023-02-05T10:31:27.182Z,37.61
2023-02-05T10:34:00.793Z,38.87
2023-02-05T10:36:27.779Z,38.60
2023-02-05T10:38:57.275Z,38.05
2023-02-05T10:41:38.823Z,39.06
2023-02-05T10:44:27.939Z,38.31
2023-02-05T10:47:03.495Z,36.96
2023-02-05T10:49:52.183Z,36.05
2023-02-05T10:52:19.072Z,35.92
2023-02-05T10:54:45.803Z,35.89
2023-02-05T10:57:16.184Z,36.39
2023-02-05T11:00:02.254Z,34.70
2023-02-05T11:02:34.560Z,35.23
2023-02-05T11:05:06.067Z,36.05
2023-02-05T11:07:38.288Z,35.96
2023-02-05T11:10:21.175Z,36.25
2023-02-05T11:13:24.599Z,36.28
2023-02-05T11:15:58.912Z,36.07
2023-02-05T11:18:33.421Z,36.50
2023-02-05T11:21:02.982Z,36.50
2023-02-05T11:23:32.082Z,37.02
2023-02-05T11:26:01.257Z,36.61
2023-02-05T11:28:32.852Z,37.10
2023-02-05T11:31:20.805Z,37.33
2023-02-05T11:33:48.759Z,36.96
2023-02-05T11:36:26.187Z,37.71
2023-02-05T11:38:57.045Z,37.96
2023-02-05T11:41:48.156Z,37.38
2023-02-05T11:44:26.103Z,37.47
2023-02-05T11:46:56.850Z,37.75
2023-02-05T11:49:41.025Z,37.65
2023-02-05T11:52:13.358Z,37.90
2023-02-05T11:54:45.852Z,38.11
2023-02-05T11:57:18.605Z,38.39
2023-02-05T11:59:55.624Z,37.97
2023-02-05T12:02:30.872Z,37.95
2023-02-05T12:05:10.990Z,38.11
2023-02-05T12:07:48.597Z,38.14
2023-02-05T12:10:26.498Z,38.16
2023-02-05T12:13:02.700Z,38.33
2023-02-05T12:15:37.372Z,38.46
2023-02-05T12:18:22.522Z,38.03
2023-02-05T12:21:28.345Z,38.35
2023-02-05T12:24:18.480Z,38.46
2023-02-05T12:26:48.500Z,38.71
2023-02-05T12:29:30.582Z,38.60
2023-02-05T12:31:57.196Z,39.06
2023-02-05T12:35:02.426Z,39.24
2023-02-05T12:37:28.920Z,38.85
2023-02-05T12:40:10.156Z,39.30
2023-02-05T12:42:44.716Z,38.38
2023-02-05T12:45:36.663Z,38.50
2023-02-05T12:48:28.292Z,38.32
2023-02-05T12:51:16.801Z,38.83
2023-02-05T12:54:02.815Z,39.05
2023-02-05T12:56:56.502Z,38.86
2023-02-05T12:59:45.650Z,39.08
2023-02-05T13:02:32.378Z,39.98
2023-02-05T13:05:09.292Z,40.12
2023-02-05T13:07:42.833Z,40.54
2023-02-05T13:10:28.334Z,40.93
2023-02-05T13:13:00.536Z,42.20
2023-02-05T13:15:35.806Z,41.73
2023-02-05T13:18:17.087Z,41.67
2023-02-05T13:21:08.161Z,42.43
2023-02-05T13:23:55.065Z,42.93
2023-02-05T13:26:48.659Z,43.00
2023-02-05T13:29:17.404Z,43.27
2023-02-05T13:31:49.020Z,44.09
2023-02-05T13:34:17.292Z,44.34
2023-02-05T13:37:00.343Z,44.63
2023-02-05T13:39:42.032Z,47.58
2023-02-05T13:42:23.787Z,47.89
2023-02-05T13:45:28.285Z,48.27
2023-02-05T13:48:32.581Z,48.63
2023-02-05T13:51:38.071Z,49.28
2023-02-05T13:54:25.777Z,49.61
2023-02-05T13:57:24.912Z,49.76
2023-02-05T13:59:53.288Z,49.87
2023-02-05T14:02:32.498Z,50.08
2023-02-05T14:05:00.746Z,50.14
2023-02-05T14:07:32.192Z,50.44
2023-02-05T14:10:00.984Z,50.22
2023-02-05T14:12:33.348Z,50.75
2023-02-05T14:15:25.172Z,50.40
2023-02-05T14:17:54.261Z,50.69
2023-02-05T14:20:30.092Z,50.77
2023-02-05T14:23:00.808Z,50.62
2023-02-05T14:25:38.184Z,51.08
2023-02-05T14:28:17.072Z,51.24
2023-02-05T14:30:46.832Z,50.84
2023-02-05T14:33:33.456Z,50.83
2023-02-05T14:36:15.221Z,51.38
2023-02-05T14:38:51.739Z,51.16
2023-02-05T14:41:24.811Z,51.29
2023-02-05T14:44:02.116Z,51.13
2023-02-05T14:46:30.814Z,51.26
2023-02-05T14:49:00.418Z,51.39
2023-02-05T14:51:38.400Z,51.23
2023-02-05T14:54:18.089Z,51.34
2023-02-05T14:56:50.640Z,51.59
2023-02-05T14:59:29.234Z,51.70
2023-02-05T15:01:57.844Z,51.57
2023-02-05T15:04:50.294Z,51.62
2023-02-05T15:07:24.462Z,51.70
2023-02-05T15:10:00.259Z,51.58
2023-02-05T15:12:35.589Z,51.60
2023-02-05T15:15:27.997Z,52.08
2023-02-05T15:17:59.076Z,52.14
2023-02-05T15:20:32.337Z,52.15
2023-02-05T15:23:23.407Z,52.19
2023-02-05T15:26:01.900Z,52.38
2023-02-05T15:28:31.329Z,52.45
2023-02-05T15:31:06.247Z,52.33
2023-02-05T15:33:42.967Z,52.44
2023-02-05T15:36:32.001Z,52.32
2023-02-05T15:39:12.747Z,52.57
2023-02-05T15:41:43.679Z,52.49
2023-02-05T15:44:21.610Z,52.35
2023-02-05T15:46:49.142Z,52.54
2023-02-05T15:49:15.753Z,52.68
2023-02-05T15:51:42.456Z,52.57
2023-02-05T15:54:09.039Z,52.62
2023-02-05T15:56:39.255Z,52.39
2023-02-05T15:59:15.807Z,52.74
2023-02-05T16:01:47.950Z,52.58
2023-02-05T16:04:28.471Z,52.99
2023-02-05T16:06:55.313Z,53.02
2023-02-05T16:09:24.960Z,52.97
2023-02-05T16:11:51.917Z,53.00
2023-02-05T16:14:24.270Z,52.98
2023-02-05T16:17:02.946Z,52.98
2023-02-05T16:19:35.866Z,53.31
2023-02-05T16:22:35.490Z,53.29
2023-02-05T16:25:07.641Z,53.31
2023-02-05T16:27:43.263Z,53.33
2023-02-05T16:30:33.888Z,53.58
2023-02-05T16:33:03.953Z,53.50
2023-02-05T16:35:41.786Z,53.56
2023-02-05T16:38:23.079Z,53.50
2023-02-05T16:40:54.805Z,53.43
2023-02-05T16:43:31.617Z,53.46
2023-02-05T16:46:20.329Z,53.32
2023-02-05T16:48:46.870Z,53.67
2023-02-05T16:52:01.537Z,53.61
2023-02-05T16:54:31.434Z,53.91
2023-02-05T16:57:00.918Z,53.91
2023-02-05T16:59:35.198Z,53.92
2023-02-05T17:02:03.488Z,53.78
2023-02-05T17:04:38.741Z,53.90
2023-02-05T17:07:17.934Z,54.01
2023-02-05T17:09:44.495Z,54.13
2023-02-05T17:12:23.112Z,53.92
2023-02-05T17:14:58.401Z,53.62
2023-02-05T17:17:26.665Z,53.72
2023-02-05T17:20:20.013Z,53.97
2023-02-05T17:23:07.885Z,54.06
2023-02-05T17:25:38.114Z,54.13
2023-02-05T17:28:07.225Z,54.31
2023-02-05T17:30:34.982Z,54.61
2023-02-05T17:33:06.036Z,54.52
2023-02-05T17:35:33.798Z,54.54
2023-02-05T17:38:00.591Z,54.54
2023-02-05T17:40:27.280Z,54.01
2023-02-05T17:42:53.859Z,54.24
2023-02-05T17:45:24.331Z,54.55
2023-02-05T17:47:50.865Z,54.37
2023-02-05T17:50:17.665Z,54.58
2023-02-05T17:52:45.462Z,54.36
2023-02-05T17:55:15.338Z,54.42
2023-02-05T17:57:43.456Z,53.86
2023-02-05T18:00:21.736Z,54.02
2023-02-05T18:02:48.744Z,54.29
2023-02-05T18:05:15.687Z,54.00
2023-02-05T18:07:46.066Z,54.23
2023-02-05T18:10:15.475Z,54.60
2023-02-05T18:12:42.154Z,54.58
2023-02-05T18:15:09.844Z,54.99
2023-02-05T18:17:36.459Z,55.03
2023-02-05T18:20:04.668Z,54.91
2023-02-05T18:22:31.667Z,55.30
2023-02-05T18:24:58.268Z,54.56
2023-02-05T18:27:25.956Z,54.59
2023-02-05T18:29:52.587Z,54.81
2023-02-05T18:32:19.480Z,54.58
2023-02-05T18:34:46.040Z,54.37
2023-02-05T18:37:14.101Z,54.81
2023-02-05T18:39:40.956Z,54.78
2023-02-05T18:42:07.578Z,54.75
2023-02-05T18:44:34.520Z,54.96
2023-02-05T18:47:02.462Z,55.13
2023-02-05T18:49:29.032Z,54.89
2023-02-05T18:51:55.565Z,54.66
2023-02-05T18:54:22.057Z,54.80
2023-02-05T18:56:48.748Z,54.95
2023-02-05T18:59:16.557Z,54.65
2023-02-05T19:01:43.472Z,54.64
2023-02-05T19:04:13.078Z,54.78
2023-02-05T19:06:45.871Z,54.82
2023-02-05T19:09:12.426Z,54.81
2023-02-05T19:11:41.279Z,55.02
2023-02-05T19:14:11.049Z,54.95
2023-02-05T19:16:39.703Z,54.92
2023-02-05T19:19:06.887Z,54.70
2023-02-05T19:21:34.066Z,55.23
2023-02-05T19:24:05.464Z,55.24
2023-02-05T19:26:33.178Z,55.31
2023-02-05T19:29:02.136Z,55.04
2023-02-05T19:31:31.858Z,54.95
2023-02-05T19:33:58.738Z,54.85
2023-02-05T19:36:26.000Z,54.82
2023-02-05T19:38:53.472Z,55.19
2023-02-05T19:41:26.218Z,55.24
2023-02-05T19:43:58.926Z,55.50
2023-02-05T19:46:27.879Z,55.43
2023-02-05T19:48:56.270Z,55.18
2023-02-05T19:51:23.081Z,55.14
2023-02-05T19:53:49.629Z,55.26
2023-02-05T19:56:19.199Z,54.74
2023-02-05T19:58:48.188Z,55.10
2023-02-05T20:01:24.448Z,54.82
2023-02-05T20:03:56.860Z,54.97
2023-02-05T20:06:26.752Z,54.58
2023-02-05T20:08:53.733Z,54.78
2023-02-05T20:11:20.558Z,54.86
2023-02-05T20:13:47.729Z,54.76
2023-02-05T20:16:19.896Z,55.16
2023-02-05T20:18:47.668Z,55.31
2023-02-05T20:21:17.056Z,55.18
2023-02-05T20:23:43.623Z,55.13
2023-02-05T20:26:10.674Z,55.20
2023-02-05T20:28:59.086Z,54.78
2023-02-05T20:31:34.360Z,54.66
2023-02-05T20:34:01.661Z,54.71
2023-02-05T20:36:28.974Z,54.85
2023-02-05T20:39:00.081Z,54.59
2023-02-05T20:41:26.965Z,54.26
2023-02-05T20:43:54.523Z,54.27
2023-02-05T20:46:21.120Z,54.54
2023-02-05T20:48:48.457Z,54.01
2023-02-05T20:51:17.460Z,54.61
2023-02-05T20:53:44.416Z,54.40
2023-02-05T20:56:16.961Z,54.12
2023-02-05T20:58:44.278Z,54.22
2023-02-05T21:01:23.924Z,54.10
2023-02-05T21:03:55.779Z,53.99
2023-02-05T21:06:23.061Z,54.32
2023-02-05T21:08:51.676Z,54.09
2023-02-05T21:11:19.594Z,54.33
2023-02-05T21:13:47.984Z,54.12
2023-02-05T21:16:18.229Z,54.54
2023-02-05T21:18:46.000Z,54.21
2023-02-05T21:21:28.348Z,54.34
2023-02-05T21:23:56.557Z,54.24
2023-02-05T21:26:26.045Z,54.31
2023-02-05T21:28:54.471Z,54.47
2023-02-05T21:31:21.059Z,54.33
2023-02-05T21:33:47.660Z,54.31
2023-02-05T21:36:14.252Z,53.87
2023-02-05T21:38:42.439Z,54.33
2023-02-05T21:41:13.946Z,54.20
2023-02-05T21:43:41.753Z,54.31
2023-02-05T21:46:13.475Z,53.92
2023-02-05T21:48:40.543Z,53.20
2023-02-05T21:51:12.536Z,53.54
2023-02-05T21:53:39.856Z,53.31
2023-02-05T21:56:09.181Z,53.28
2023-02-05T21:58:37.522Z,53.19
2023-02-05T22:01:22.046Z,53.45
2023-02-05T22:03:51.745Z,53.28
2023-02-05T22:06:19.922Z,53.13
2023-02-05T22:08:50.830Z,53.07
2023-02-05T22:11:20.448Z,52.93
2023-02-05T22:13:49.088Z,53.09
2023-02-05T22:16:21.569Z,52.80
2023-02-05T22:18:48.743Z,52.70
2023-02-05T22:21:18.109Z,52.13
2023-02-05T22:23:50.540Z,51.87
2023-02-05T22:26:19.029Z,52.26
2023-02-05T22:28:45.904Z,52.00
2023-02-05T22:31:15.686Z,51.64
2023-02-05T22:33:44.788Z,51.75
2023-02-05T22:36:13.556Z,51.42
2023-02-05T22:38:41.770Z,51.57
2023-02-05T22:41:09.525Z,51.49
2023-02-05T22:43:36.564Z,51.92
2023-02-05T22:46:08.445Z,51.58
2023-02-05T22:48:39.918Z,51.51
2023-02-05T22:51:09.919Z,51.05
2023-02-05T22:53:36.743Z,50.84
2023-02-05T22:56:06.624Z,51.44
2023-02-05T22:58:34.129Z,51.98
2023-02-05T23:01:14.722Z,52.05
2023-02-05T23:03:41.365Z,52.07
2023-02-05T23:06:16.748Z,51.76
2023-02-05T23:08:43.788Z,51.76
2023-02-05T23:11:13.339Z,51.78
2023-02-05T23:13:41.134Z,51.67
2023-02-05T23:16:13.785Z,51.28
2023-02-05T23:18:40.904Z,51.43
2023-02-05T23:21:16.487Z,51.34
2023-02-05T23:23:43.490Z,51.16
2023-02-05T23:26:13.509Z,50.96
2023-02-05T23:28:40.334Z,51.09
2023-02-05T23:31:07.478Z,51.19
2023-02-05T23:33:35.477Z,51.43
2023-02-05T23:36:02.834Z,51.43
2023-02-05T23:38:29.452Z,51.91
2023-02-05T23:40:56.269Z,51.83
2023-02-05T23:43:23.792Z,51.18
2023-02-05T23:45:52.060Z,51.35
2023-02-05T23:48:18.802Z,51.27
2023-02-05T23:50:49.226Z,51.00
2023-02-05T23:53:15.986Z,50.62
2023-02-05T23:55:43.913Z,50.65
2023-02-05T23:58:11.340Z,50.51
